Oluja — V7QE8 — position and weather

sailwx.info

Track history (hours):
 
Tides and Currents Weather Stations Pressure Air Temp Water Temp Dewpoint Dewpoint Depression Visibility Wind Speed Wind Dir Waves Ship Positions

Oluja

Last reported at 2015-Mar-14 09:11 UTC. Time now 2015-Mar-28 11:04 UTC.
Position N 35°58' W 005°34'.
Warning: this ship's position is 14 days out of date.

Length 188 m; draft 6.2 m.

Type: Cargo ship. MMSI: 538003345.

Date/timePositionNaut miles runAvg speedWind from/ knotsBaromVisibWave heightAir tempDewpointWater temp
2015-Mar-14 09:11N 35°58' W 005°34'711.0
2015-Mar-14 08:33N 36°00' W 005°26'8 8.1
2015-Mar-14 07:33N 36°07' W 005°22'0 0.1
2015-Mar-14 05:29N 36°07' W 005°22'0 0.0
2015-Mar-14 04:32N 36°07' W 005°22'0 0.1
2015-Mar-14 03:31N 36°07' W 005°22'0 0.0
2015-Mar-13 23:32N 36°07' W 005°22'0 0.1
2015-Mar-13 22:32N 36°07' W 005°22'0 0.1
2015-Mar-13 21:31N 36°07' W 005°22'0 0.0
2015-Mar-13 20:33N 36°07' W 005°22'0 0.0
2015-Mar-13 19:33N 36°07' W 005°22'1 1.3
2015-Mar-13 18:33N 36°06' W 005°21'7 6.5
2015-Mar-13 17:33N 36°06' W 005°13'20911.6
2015-Mar-12 23:33N 37°06' W 001°04'1312.7
2015-Mar-12 22:33N 37°14' W 000°52'1313.2
2015-Mar-12 21:33N 37°23' W 000°40'1313.3
2015-Mar-12 20:33N 37°32' W 000°28'1313.2
2015-Mar-12 19:33N 37°43' W 000°18'1313.2
2015-Mar-12 18:33N 37°53' W 000°08'1313.4
2015-Mar-12 17:33N 38°04' E 000°02'1313.1
2015-Mar-12 16:33N 38°15' E 000°12'1313.2
2015-Mar-12 15:32N 38°26' E 000°22'1313.4
2015-Mar-12 14:33N 38°36' E 000°32'1313.1
2015-Mar-12 13:33N 38°47' E 000°42'1513.1
2015-Mar-12 12:26N 38°59' E 000°53'2813.0
2015-Mar-12 10:19N 39°21' E 001°14'1313.1
2015-Mar-12 09:17N 39°31' E 001°25'1313.0
2015-Mar-12 08:17N 39°42' E 001°35'913.0
2015-Mar-12 07:34N 39°50' E 001°42'1313.4
2015-Mar-12 06:33N 40°00' E 001°53'1313.1
2015-Mar-12 05:33N 40°11' E 002°03'1313.4
2015-Mar-12 04:33N 40°22' E 002°14'1313.0
2015-Mar-12 03:33N 40°32' E 002°24'1313.0
2015-Mar-12 02:33N 40°42' E 002°34'1313.1
2015-Mar-12 01:33N 40°53' E 002°44'1313.0
2015-Mar-12 00:33N 41°04' E 002°55'1313.4
2015-Mar-11 23:33N 41°14' E 003°05'4613.9
2015-Mar-11 20:15N 41°51' E 003°41'1014.2
2015-Mar-11 19:33N 41°59' E 003°49'1513.4
2015-Mar-11 18:27N 42°11' E 004°01'1112.7
2015-Mar-11 17:33N 42°20' E 004°10'1413.5
2015-Mar-11 16:32N 42°31' E 004°21'1413.6
2015-Mar-11 15:32N 42°42' E 004°33'1413.6
2015-Mar-11 14:32N 42°53' E 004°43'1313.3
2015-Mar-11 13:32N 43°04' E 004°54'1212.2
2015-Mar-11 12:33N 43°15' E 004°60'10 9.7
2015-Mar-11 11:33N 43°24' E 004°54'2 2.2
2015-Mar-11 10:29N 43°26' E 004°52'0 0.0
2015-Mar-11 09:32N 43°26' E 004°52'0 0.0
2015-Mar-11 08:32N 43°26' E 004°52'0 0.0
2015-Mar-11 07:26N 43°26' E 004°52'0 0.0
2015-Mar-11 06:32N 43°26' E 004°52'0 0.0
2015-Mar-11 05:32N 43°26' E 004°52'0 0.0
2015-Mar-11 04:32N 43°26' E 004°52'0 0.0
2015-Mar-11 03:32N 43°26' E 004°52'0 0.0
2015-Mar-11 02:32N 43°26' E 004°52'0 0.0
2015-Mar-11 01:32N 43°26' E 004°52'0 0.0
2015-Mar-11 00:29N 43°26' E 004°52'0 0.0
2015-Mar-10 23:32N 43°26' E 004°52'0 0.0
2015-Mar-10 22:32N 43°26' E 004°52'0 0.0
2015-Mar-10 21:32N 43°26' E 004°52'0 0.0
2015-Mar-10 20:23N 43°26' E 004°52'0 0.0
2015-Mar-10 19:26N 43°26' E 004°52'0 0.0
2015-Mar-10 18:32N 43°26' E 004°52'0 0.0
2015-Mar-10 17:32N 43°26' E 004°52'0 0.0
2015-Mar-10 16:32N 43°26' E 004°52'0 0.0
2015-Mar-10 15:29N 43°26' E 004°52'0 0.0
2015-Mar-10 14:29N 43°26' E 004°52'0 0.0
2015-Mar-10 13:29N 43°26' E 004°52'0 0.0
2015-Mar-10 12:32N 43°26' E 004°52'0 0.0
2015-Mar-10 11:20N 43°26' E 004°52'0 0.0
2015-Mar-10 10:32N 43°26' E 004°52'0 0.0
2015-Mar-10 09:26N 43°26' E 004°52'0 0.0
2015-Mar-10 08:26N 43°26' E 004°52'0 0.0
2015-Mar-10 07:32N 43°26' E 004°52'0 0.0
2015-Mar-10 06:32N 43°26' E 004°52'0 0.0
2015-Mar-10 05:32N 43°26' E 004°52'0 0.0
2015-Mar-10 04:29N 43°26' E 004°52'0 0.0
2015-Mar-10 03:32N 43°26' E 004°52'0 0.0
2015-Mar-10 02:32N 43°26' E 004°52'0 0.0
2015-Mar-10 01:32N 43°26' E 004°52'0 0.0
2015-Mar-10 00:32N 43°26' E 004°52'0 0.0
2015-Mar-09 23:32N 43°26' E 004°52'0 0.0
2015-Mar-09 22:32N 43°26' E 004°52'0 0.0
2015-Mar-09 21:32N 43°26' E 004°52'0 0.0
2015-Mar-09 20:32N 43°26' E 004°52'0 0.0
2015-Mar-09 19:26N 43°26' E 004°52'0 0.0
2015-Mar-09 18:29N 43°26' E 004°52'0 0.0
2015-Mar-09 17:32N 43°26' E 004°52'0 0.0
2015-Mar-09 16:32N 43°26' E 004°52'0 0.0
2015-Mar-09 15:32N 43°26' E 004°52'0 0.0
2015-Mar-09 14:32N 43°26' E 004°52'0 0.0
2015-Mar-09 13:32N 43°26' E 004°52'0 0.0
2015-Mar-09 12:26N 43°26' E 004°52'0 0.0
2015-Mar-09 11:32N 43°26' E 004°52'0 0.0
2015-Mar-09 10:32N 43°26' E 004°52'0 0.0
2015-Mar-09 09:32N 43°26' E 004°52'0 0.0
2015-Mar-09 07:20N 43°26' E 004°52'0 0.0
2015-Mar-09 04:08N 43°26' E 004°52'0 0.0
2015-Mar-08 16:20N 43°26' E 004°52'0 0.0
2015-Mar-08 15:32N 43°26' E 004°52'0 0.0
2015-Mar-08 13:32N 43°26' E 004°52'0 0.0
2015-Mar-08 12:32N 43°26' E 004°52'0 0.0
2015-Mar-08 11:14N 43°26' E 004°52'0 0.0
2015-Mar-08 10:08N 43°26' E 004°52'1 0.7
2015-Mar-08 08:33N 43°25' E 004°53'5 4.7
2015-Mar-08 07:32N 43°21' E 004°56'0 0.1
2015-Mar-08 06:32N 43°21' E 004°56'0 0.0
2015-Mar-08 05:23N 43°21' E 004°56'0 0.0
2015-Mar-08 04:32N 43°21' E 004°56'0 0.0
2015-Mar-08 03:26N 43°21' E 004°56'0 0.1
2015-Mar-08 02:32N 43°21' E 004°56'0 0.2
2015-Mar-08 01:29N 43°21' E 004°56'0 0.1
2015-Mar-08 00:26N 43°21' E 004°56'0 0.0
2015-Mar-07 23:32N 43°21' E 004°56'0 0.0
2015-Mar-07 22:26N 43°21' E 004°56'0 0.0
2015-Mar-07 21:26N 43°21' E 004°56'0 0.0
2015-Mar-07 20:20N 43°21' E 004°56'0 0.0
2015-Mar-07 19:32N 43°21' E 004°56'0 0.0
2015-Mar-07 18:32N 43°21' E 004°56'0 0.0
2015-Mar-07 17:17N 43°21' E 004°56'0 0.0
2015-Mar-07 16:29N 43°21' E 004°56'0 0.0
2015-Mar-07 15:32N 43°21' E 004°56'0 0.0
2015-Mar-07 14:32N 43°21' E 004°56'0 0.0
2015-Mar-07 13:32N 43°21' E 004°56'0 0.0
2015-Mar-07 12:32N 43°21' E 004°56'0 0.0
2015-Mar-07 11:26N 43°21' E 004°56'0 0.0
2015-Mar-07 10:32N 43°21' E 004°56'0 0.1
2015-Mar-07 09:32N 43°21' E 004°56'0 0.0
2015-Mar-07 08:32N 43°21' E 004°56'0 0.0
2015-Mar-07 07:32N 43°21' E 004°56'0 0.0
2015-Mar-07 06:32N 43°21' E 004°56'0 0.0
2015-Mar-07 05:32N 43°21' E 004°56'0 0.0
2015-Mar-07 04:32N 43°21' E 004°56'0 0.0
2015-Mar-07 03:32N 43°20' E 004°56'0 0.0
2015-Mar-07 02:32N 43°20' E 004°56'0 0.0
2015-Mar-07 01:32N 43°21' E 004°56'0 0.0
2015-Mar-07 00:29N 43°21' E 004°56'0 0.0
2015-Mar-06 23:32N 43°20' E 004°56'0 0.0
2015-Mar-06 22:32N 43°21' E 004°56'0 0.0
2015-Mar-06 21:32N 43°21' E 004°56'0 0.1
2015-Mar-06 20:32N 43°20' E 004°56'0 0.0
2015-Mar-06 19:32N 43°21' E 004°56'0 0.0
2015-Mar-06 18:29N 43°21' E 004°56'0 0.0
2015-Mar-06 17:32N 43°21' E 004°56'0 0.0
2015-Mar-06 16:32N 43°21' E 004°56'0 0.0
2015-Mar-06 15:32N 43°21' E 004°56'0 0.0
2015-Mar-06 14:32N 43°21' E 004°56'0 0.0
2015-Mar-06 13:32N 43°20' E 004°56'0 0.0
2015-Mar-06 12:32N 43°20' E 004°56'0 0.0
2015-Mar-06 11:32N 43°20' E 004°56'0 0.0
2015-Mar-06 10:32N 43°20' E 004°56'0 0.0
2015-Mar-06 09:32N 43°20' E 004°56'0 0.0
2015-Mar-06 08:32N 43°20' E 004°56'0 0.0
2015-Mar-06 07:32N 43°20' E 004°56'0 0.0
2015-Mar-06 06:32N 43°20' E 004°56'0 0.0
2015-Mar-06 05:32N 43°20' E 004°56'0 0.0
2015-Mar-06 04:29N 43°20' E 004°56'0 0.0
2015-Mar-06 03:26N 43°20' E 004°56'0 0.0
2015-Mar-06 02:32N 43°20' E 004°56'0 0.0
2015-Mar-06 01:26N 43°20' E 004°56'0 0.0
2015-Mar-06 00:32N 43°20' E 004°56'0 0.0
2015-Mar-05 23:32N 43°20' E 004°56'0 0.0
2015-Mar-05 22:32N 43°20' E 004°56'0 0.0
2015-Mar-05 21:32N 43°20' E 004°56'0 0.0
2015-Mar-05 20:32N 43°20' E 004°56'0 0.0
2015-Mar-05 19:32N 43°20' E 004°56'0 0.0
2015-Mar-05 18:32N 43°20' E 004°56'0 0.0
2015-Mar-05 17:32N 43°20' E 004°56'0 0.0
2015-Mar-05 16:32N 43°20' E 004°56'0 0.0
2015-Mar-05 15:32N 43°20' E 004°56'0 0.0
2015-Mar-05 14:32N 43°20' E 004°56'0 0.0
2015-Mar-05 13:32N 43°20' E 004°56'0 0.0
2015-Mar-05 12:32N 43°20' E 004°56'0 0.0
2015-Mar-05 11:32N 43°20' E 004°56'0 0.0
2015-Mar-05 10:32N 43°20' E 004°56'0 0.0
2015-Mar-05 09:32N 43°20' E 004°56'0 0.0
2015-Mar-05 08:32N 43°20' E 004°56'0 0.0
2015-Mar-05 07:32N 43°20' E 004°56'0 0.0
2015-Mar-05 06:32N 43°20' E 004°56'0 0.0
2015-Mar-05 05:32N 43°20' E 004°56'0 0.0
2015-Mar-05 04:32N 43°20' E 004°56'0 0.0
2015-Mar-05 03:32N 43°20' E 004°56'0 0.0
2015-Mar-05 02:32N 43°20' E 004°56'0 0.0
2015-Mar-05 01:32N 43°20' E 004°56'0 0.0
2015-Mar-05 00:32N 43°20' E 004°56'0 0.0
2015-Mar-04 23:32N 43°20' E 004°56'0 0.0
2015-Mar-04 22:32N 43°20' E 004°56'0 0.0
2015-Mar-04 21:32N 43°20' E 004°56'0 0.0
2015-Mar-04 20:32N 43°20' E 004°56'0 0.0
2015-Mar-04 19:32N 43°20' E 004°56'0 0.0
2015-Mar-04 18:32N 43°20' E 004°56'0 0.0
2015-Mar-04 17:32N 43°20' E 004°56'0 0.0
2015-Mar-04 16:32N 43°20' E 004°56'0 0.0
2015-Mar-04 15:32N 43°20' E 004°56'0 0.0
2015-Mar-04 14:32N 43°20' E 004°56'0 0.0
2015-Mar-04 13:32N 43°20' E 004°56'0 0.0
2015-Mar-04 12:32N 43°20' E 004°56'0 0.0
2015-Mar-04 11:32N 43°20' E 004°56'0 0.0
2015-Mar-04 10:32N 43°20' E 004°56'0 0.1
2015-Mar-04 09:32N 43°21' E 004°56'  
Track history (hours):
 
Tides and Currents Weather Stations Pressure Air Temp Water Temp Dewpoint Dewpoint Depression Visibility Wind Speed Wind Dir Waves Ship Positions

Oluja

Last reported at 2015-Mar-14 09:11 UTC. Time now 2015-Mar-28 11:04 UTC.
Position N 35°58' W 005°34'.
Warning: this ship's position is 14 days out of date.

Length 188 m; draft 6.2 m.

Type: Cargo ship. MMSI: 538003345.

Date/timePositionNaut miles runAvg speedWind from/ knotsBaromVisibWave heightAir tempDewpointWater temp
2015-Mar-14 09:11N 35°58' W 005°34'711.0
2015-Mar-14 08:33N 36°00' W 005°26'8 8.1
2015-Mar-14 07:33N 36°07' W 005°22'0 0.1
2015-Mar-14 05:29N 36°07' W 005°22'0 0.0
2015-Mar-14 04:32N 36°07' W 005°22'0 0.1
2015-Mar-14 03:31N 36°07' W 005°22'0 0.0
2015-Mar-13 23:32N 36°07' W 005°22'0 0.1
2015-Mar-13 22:32N 36°07' W 005°22'0 0.1
2015-Mar-13 21:31N 36°07' W 005°22'0 0.0
2015-Mar-13 20:33N 36°07' W 005°22'0 0.0
2015-Mar-13 19:33N 36°07' W 005°22'1 1.3
2015-Mar-13 18:33N 36°06' W 005°21'7 6.5
2015-Mar-13 17:33N 36°06' W 005°13'20911.6
2015-Mar-12 23:33N 37°06' W 001°04'1312.7
2015-Mar-12 22:33N 37°14' W 000°52'1313.2
2015-Mar-12 21:33N 37°23' W 000°40'1313.3
2015-Mar-12 20:33N 37°32' W 000°28'1313.2
2015-Mar-12 19:33N 37°43' W 000°18'1313.2
2015-Mar-12 18:33N 37°53' W 000°08'1313.4
2015-Mar-12 17:33N 38°04' E 000°02'1313.1
2015-Mar-12 16:33N 38°15' E 000°12'1313.2
2015-Mar-12 15:32N 38°26' E 000°22'1313.4
2015-Mar-12 14:33N 38°36' E 000°32'1313.1
2015-Mar-12 13:33N 38°47' E 000°42'1513.1
2015-Mar-12 12:26N 38°59' E 000°53'2813.0
2015-Mar-12 10:19N 39°21' E 001°14'1313.1
2015-Mar-12 09:17N 39°31' E 001°25'1313.0
2015-Mar-12 08:17N 39°42' E 001°35'913.0
2015-Mar-12 07:34N 39°50' E 001°42'1313.4
2015-Mar-12 06:33N 40°00' E 001°53'1313.1
2015-Mar-12 05:33N 40°11' E 002°03'1313.4
2015-Mar-12 04:33N 40°22' E 002°14'1313.0
2015-Mar-12 03:33N 40°32' E 002°24'1313.0
2015-Mar-12 02:33N 40°42' E 002°34'1313.1
2015-Mar-12 01:33N 40°53' E 002°44'1313.0
2015-Mar-12 00:33N 41°04' E 002°55'1313.4
2015-Mar-11 23:33N 41°14' E 003°05'4613.9
2015-Mar-11 20:15N 41°51' E 003°41'1014.2
2015-Mar-11 19:33N 41°59' E 003°49'1513.4
2015-Mar-11 18:27N 42°11' E 004°01'1112.7
2015-Mar-11 17:33N 42°20' E 004°10'1413.5
2015-Mar-11 16:32N 42°31' E 004°21'1413.6
2015-Mar-11 15:32N 42°42' E 004°33'1413.6
2015-Mar-11 14:32N 42°53' E 004°43'1313.3
2015-Mar-11 13:32N 43°04' E 004°54'1212.2
2015-Mar-11 12:33N 43°15' E 004°60'10 9.7
2015-Mar-11 11:33N 43°24' E 004°54'2 2.2
2015-Mar-11 10:29N 43°26' E 004°52'0 0.0
2015-Mar-11 09:32N 43°26' E 004°52'0 0.0
2015-Mar-11 08:32N 43°26' E 004°52'0 0.0
2015-Mar-11 07:26N 43°26' E 004°52'0 0.0
2015-Mar-11 06:32N 43°26' E 004°52'0 0.0
2015-Mar-11 05:32N 43°26' E 004°52'0 0.0
2015-Mar-11 04:32N 43°26' E 004°52'0 0.0
2015-Mar-11 03:32N 43°26' E 004°52'0 0.0
2015-Mar-11 02:32N 43°26' E 004°52'0 0.0
2015-Mar-11 01:32N 43°26' E 004°52'0 0.0
2015-Mar-11 00:29N 43°26' E 004°52'0 0.0
2015-Mar-10 23:32N 43°26' E 004°52'0 0.0
2015-Mar-10 22:32N 43°26' E 004°52'0 0.0
2015-Mar-10 21:32N 43°26' E 004°52'0 0.0
2015-Mar-10 20:23N 43°26' E 004°52'0 0.0
2015-Mar-10 19:26N 43°26' E 004°52'0 0.0
2015-Mar-10 18:32N 43°26' E 004°52'0 0.0
2015-Mar-10 17:32N 43°26' E 004°52'0 0.0
2015-Mar-10 16:32N 43°26' E 004°52'0 0.0
2015-Mar-10 15:29N 43°26' E 004°52'0 0.0
2015-Mar-10 14:29N 43°26' E 004°52'0 0.0
2015-Mar-10 13:29N 43°26' E 004°52'0 0.0
2015-Mar-10 12:32N 43°26' E 004°52'0 0.0
2015-Mar-10 11:20N 43°26' E 004°52'0 0.0
2015-Mar-10 10:32N 43°26' E 004°52'0 0.0
2015-Mar-10 09:26N 43°26' E 004°52'0 0.0
2015-Mar-10 08:26N 43°26' E 004°52'0 0.0
2015-Mar-10 07:32N 43°26' E 004°52'0 0.0
2015-Mar-10 06:32N 43°26' E 004°52'0 0.0
2015-Mar-10 05:32N 43°26' E 004°52'0 0.0
2015-Mar-10 04:29N 43°26' E 004°52'0 0.0
2015-Mar-10 03:32N 43°26' E 004°52'0 0.0
2015-Mar-10 02:32N 43°26' E 004°52'0 0.0
2015-Mar-10 01:32N 43°26' E 004°52'0 0.0
2015-Mar-10 00:32N 43°26' E 004°52'0 0.0
2015-Mar-09 23:32N 43°26' E 004°52'0 0.0
2015-Mar-09 22:32N 43°26' E 004°52'0 0.0
2015-Mar-09 21:32N 43°26' E 004°52'0 0.0
2015-Mar-09 20:32N 43°26' E 004°52'0 0.0
2015-Mar-09 19:26N 43°26' E 004°52'0 0.0
2015-Mar-09 18:29N 43°26' E 004°52'0 0.0
2015-Mar-09 17:32N 43°26' E 004°52'0 0.0
2015-Mar-09 16:32N 43°26' E 004°52'0 0.0
2015-Mar-09 15:32N 43°26' E 004°52'0 0.0
2015-Mar-09 14:32N 43°26' E 004°52'0 0.0
2015-Mar-09 13:32N 43°26' E 004°52'0 0.0
2015-Mar-09 12:26N 43°26' E 004°52'0 0.0
2015-Mar-09 11:32N 43°26' E 004°52'0 0.0
2015-Mar-09 10:32N 43°26' E 004°52'0 0.0
2015-Mar-09 09:32N 43°26' E 004°52'0 0.0
2015-Mar-09 07:20N 43°26' E 004°52'0 0.0
2015-Mar-09 04:08N 43°26' E 004°52'0 0.0
2015-Mar-08 16:20N 43°26' E 004°52'0 0.0
2015-Mar-08 15:32N 43°26' E 004°52'0 0.0
2015-Mar-08 13:32N 43°26' E 004°52'0 0.0
2015-Mar-08 12:32N 43°26' E 004°52'0 0.0
2015-Mar-08 11:14N 43°26' E 004°52'0 0.0
2015-Mar-08 10:08N 43°26' E 004°52'1 0.7
2015-Mar-08 08:33N 43°25' E 004°53'5 4.7
2015-Mar-08 07:32N 43°21' E 004°56'0 0.1
2015-Mar-08 06:32N 43°21' E 004°56'0 0.0
2015-Mar-08 05:23N 43°21' E 004°56'0 0.0
2015-Mar-08 04:32N 43°21' E 004°56'0 0.0
2015-Mar-08 03:26N 43°21' E 004°56'0 0.1
2015-Mar-08 02:32N 43°21' E 004°56'0 0.2
2015-Mar-08 01:29N 43°21' E 004°56'0 0.1
2015-Mar-08 00:26N 43°21' E 004°56'0 0.0
2015-Mar-07 23:32N 43°21' E 004°56'0 0.0
2015-Mar-07 22:26N 43°21' E 004°56'0 0.0
2015-Mar-07 21:26N 43°21' E 004°56'0 0.0
2015-Mar-07 20:20N 43°21' E 004°56'0 0.0
2015-Mar-07 19:32N 43°21' E 004°56'0 0.0
2015-Mar-07 18:32N 43°21' E 004°56'0 0.0
2015-Mar-07 17:17N 43°21' E 004°56'0 0.0
2015-Mar-07 16:29N 43°21' E 004°56'0 0.0
2015-Mar-07 15:32N 43°21' E 004°56'0 0.0
2015-Mar-07 14:32N 43°21' E 004°56'0 0.0
2015-Mar-07 13:32N 43°21' E 004°56'0 0.0
2015-Mar-07 12:32N 43°21' E 004°56'0 0.0
2015-Mar-07 11:26N 43°21' E 004°56'0 0.0
2015-Mar-07 10:32N 43°21' E 004°56'0 0.1
2015-Mar-07 09:32N 43°21' E 004°56'0 0.0
2015-Mar-07 08:32N 43°21' E 004°56'0 0.0
2015-Mar-07 07:32N 43°21' E 004°56'0 0.0
2015-Mar-07 06:32N 43°21' E 004°56'0 0.0
2015-Mar-07 05:32N 43°21' E 004°56'0 0.0
2015-Mar-07 04:32N 43°21' E 004°56'0 0.0
2015-Mar-07 03:32N 43°20' E 004°56'0 0.0
2015-Mar-07 02:32N 43°20' E 004°56'0 0.0
2015-Mar-07 01:32N 43°21' E 004°56'0 0.0
2015-Mar-07 00:29N 43°21' E 004°56'0 0.0
2015-Mar-06 23:32N 43°20' E 004°56'0 0.0
2015-Mar-06 22:32N 43°21' E 004°56'0 0.0
2015-Mar-06 21:32N 43°21' E 004°56'0 0.1
2015-Mar-06 20:32N 43°20' E 004°56'0 0.0
2015-Mar-06 19:32N 43°21' E 004°56'0 0.0
2015-Mar-06 18:29N 43°21' E 004°56'0 0.0
2015-Mar-06 17:32N 43°21' E 004°56'0 0.0
2015-Mar-06 16:32N 43°21' E 004°56'0 0.0
2015-Mar-06 15:32N 43°21' E 004°56'0 0.0
2015-Mar-06 14:32N 43°21' E 004°56'0 0.0
2015-Mar-06 13:32N 43°20' E 004°56'0 0.0
2015-Mar-06 12:32N 43°20' E 004°56'0 0.0
2015-Mar-06 11:32N 43°20' E 004°56'0 0.0
2015-Mar-06 10:32N 43°20' E 004°56'0 0.0
2015-Mar-06 09:32N 43°20' E 004°56'0 0.0
2015-Mar-06 08:32N 43°20' E 004°56'0 0.0
2015-Mar-06 07:32N 43°20' E 004°56'0 0.0
2015-Mar-06 06:32N 43°20' E 004°56'0 0.0
2015-Mar-06 05:32N 43°20' E 004°56'0 0.0
2015-Mar-06 04:29N 43°20' E 004°56'0 0.0
2015-Mar-06 03:26N 43°20' E 004°56'0 0.0
2015-Mar-06 02:32N 43°20' E 004°56'0 0.0
2015-Mar-06 01:26N 43°20' E 004°56'0 0.0
2015-Mar-06 00:32N 43°20' E 004°56'0 0.0
2015-Mar-05 23:32N 43°20' E 004°56'0 0.0
2015-Mar-05 22:32N 43°20' E 004°56'0 0.0
2015-Mar-05 21:32N 43°20' E 004°56'0 0.0
2015-Mar-05 20:32N 43°20' E 004°56'0 0.0
2015-Mar-05 19:32N 43°20' E 004°56'0 0.0
2015-Mar-05 18:32N 43°20' E 004°56'0 0.0
2015-Mar-05 17:32N 43°20' E 004°56'0 0.0
2015-Mar-05 16:32N 43°20' E 004°56'0 0.0
2015-Mar-05 15:32N 43°20' E 004°56'0 0.0
2015-Mar-05 14:32N 43°20' E 004°56'0 0.0
2015-Mar-05 13:32N 43°20' E 004°56'0 0.0
2015-Mar-05 12:32N 43°20' E 004°56'0 0.0
2015-Mar-05 11:32N 43°20' E 004°56'0 0.0
2015-Mar-05 10:32N 43°20' E 004°56'0 0.0
2015-Mar-05 09:32N 43°20' E 004°56'0 0.0
2015-Mar-05 08:32N 43°20' E 004°56'0 0.0
2015-Mar-05 07:32N 43°20' E 004°56'0 0.0
2015-Mar-05 06:32N 43°20' E 004°56'0 0.0
2015-Mar-05 05:32N 43°20' E 004°56'0 0.0
2015-Mar-05 04:32N 43°20' E 004°56'0 0.0
2015-Mar-05 03:32N 43°20' E 004°56'0 0.0
2015-Mar-05 02:32N 43°20' E 004°56'0 0.0
2015-Mar-05 01:32N 43°20' E 004°56'0 0.0
2015-Mar-05 00:32N 43°20' E 004°56'0 0.0
2015-Mar-04 23:32N 43°20' E 004°56'0 0.0
2015-Mar-04 22:32N 43°20' E 004°56'0 0.0
2015-Mar-04 21:32N 43°20' E 004°56'0 0.0
2015-Mar-04 20:32N 43°20' E 004°56'0 0.0
2015-Mar-04 19:32N 43°20' E 004°56'0 0.0
2015-Mar-04 18:32N 43°20' E 004°56'0 0.0
2015-Mar-04 17:32N 43°20' E 004°56'0 0.0
2015-Mar-04 16:32N 43°20' E 004°56'0 0.0
2015-Mar-04 15:32N 43°20' E 004°56'0 0.0
2015-Mar-04 14:32N 43°20' E 004°56'0 0.0
2015-Mar-04 13:32N 43°20' E 004°56'0 0.0
2015-Mar-04 12:32N 43°20' E 004°56'0 0.0
2015-Mar-04 11:32N 43°20' E 004°56'0 0.0
2015-Mar-04 10:32N 43°20' E 004°56'0 0.1
2015-Mar-04 09:32N 43°21' E 004°56'  

Dump ship's entire track history